首页
METAR-TAF:

METAR-TAF

机场 :

Rochelle Municipal Airport (Koritz Field)

罗沙尔, 伊利诺伊州, 美国

纬度: 41-53-35N, 经度: 089-04-42W, 海拔: 238米

当前天气观测

该预报发布于16分钟前的20:35 UTC
风速8节,风向西
温度 -10°C
湿度 52%
气压 1032 hPa
能見度: 16.1公里
天空无云

METAR: KRPJ 122035Z AUTO 27008KT 10SM CLR M10/M18 A3047 RMK AO2 T10971185

时间: 14:51 (20:51 UTC)


TAF: 丢失

超过4000个机场的气象观测和天气预报(METAR&TAF报告)。

可查询的气象台以黄色和红色小点在地图上表示。

将鼠标移到小点上方,可查看气象台名称。

然后点击查看天气观测和预报。

如需切换地图:点击带黑十字的绿色按钮放大地图;点击带横线的绿色按钮缩小地图;或者点击绿色箭头查看邻近地区的地图。


METAR-TAF: